Time;durP1;ratioP1;P1;durP2;ratioP2;P2;SDS_P1;SDS_P2;PMS_P1;PMS_P2;Temp;Humidity;BMP_temperature;BMP_pressure;BME280_temperature;BME280_humidity;BME280_pressure;Samples;Min_cycle;Max_cycle;Signal;HPM_P1;HPM_P2
2023/09/29 17:15:15;;;;;;;1999.90;999.90;;;;;;;;;;5101461;27;20369;-88
2023/09/29 17:17:41;;;;;;;1999.90;999.90;;;;;;;;;;5076238;28;20044;-84
2023/09/29 17:20:10;;;;;;;1999.90;999.90;;;;;;;;;;5083292;28;20420;-87
2023/09/29 17:22:36;;;;;;;1999.90;999.90;;;;;;;;;;5079229;28;20067;-84
2023/09/29 17:25:03;;;;;;;1999.90;999.90;;;;;;;;;;5080332;28;20052;-87
2023/09/29 17:27:30;;;;;;;1999.90;999.90;;;;;;;;;;5079956;28;20131;-88
2023/09/29 17:29:56;;;;;;;1999.90;999.90;;;;;;;;;;5085758;28;20455;-86
2023/09/29 17:32:24;;;;;;;1999.90;999.90;;;;;;;;;;5082378;28;20138;-86
2023/09/29 17:34:52;;;;;;;1999.90;999.90;;;;;;;;;;5076169;28;20044;-90
2023/09/29 17:37:18;;;;;;;1999.90;999.90;;;;;;;;;;5078238;28;20045;-86
2023/09/29 17:39:45;;;;;;;1999.90;999.90;;;;;;;;;;5073795;28;20044;-86
2023/09/29 17:42:12;;;;;;;1999.90;999.90;;;;;;;;;;5075703;28;20052;-87
2023/09/29 17:44:38;;;;;;;1999.90;999.90;;;;;;;;;;5077140;28;20048;-86
2023/09/29 17:47:06;;;;;;;1999.90;999.90;;;;;;;;;;5078906;28;20067;-87
2023/09/29 17:49:34;;;;;;;1999.90;999.90;;;;;;;;;;5074294;28;20044;-86
2023/09/29 17:52:01;;;;;;;1999.90;999.90;;;;;;;;;;5080705;28;20045;-87
2023/09/29 17:54:27;;;;;;;1999.90;999.90;;;;;;;;;;5083404;28;20045;-86
2023/09/29 17:56:54;;;;;;;1999.90;999.90;;;;;;;;;;5083753;28;20070;-86
2023/09/29 17:59:22;;;;;;;1999.90;999.90;;;;;;;;;;5083868;28;20052;-85
2023/09/29 18:01:50;;;;;;;1999.90;999.90;;;;;;;;;;5085069;28;20420;-86
2023/09/29 18:04:17;;;;;;;1999.90;999.90;;;;;;;;;;5078702;28;20048;-86
2023/09/29 18:06:46;;;;;;;1999.90;999.90;;;;;;;;;;5078731;28;20143;-86
2023/09/29 18:09:12;;;;;;;1999.90;999.90;;;;;;;;;;5075945;28;20049;-86
2023/09/29 18:11:39;;;;;;;1999.90;999.90;;;;;;;;;;5075820;28;20053;-87
2023/09/29 18:14:05;;;;;;;1999.90;999.90;;;;;;;;;;5086540;28;20083;-85
2023/09/29 18:16:32;;;;;;;1999.90;999.90;;;;;;;;;;5083337;28;20041;-85
2023/09/29 18:18:59;;;;;;;1999.90;999.90;;;;;;;;;;5099145;28;20474;-82
2023/09/29 18:21:27;;;;;;;1999.90;999.90;;;;;;;;;;5100931;28;20127;-84
2023/09/29 18:23:55;;;;;;;1999.90;999.90;;;;;;;;;;5101706;28;20101;-83
2023/09/29 18:26:22;;;;;;;1999.90;999.90;;;;;;;;;;5087989;28;20087;-83
2023/09/29 18:28:49;;;;;;;1999.90;999.90;;;;;;;;;;5082968;28;20159;-82
2023/09/29 18:31:16;;;;;;;1999.90;999.90;;;;;;;;;;5080560;28;20395;-81
2023/09/29 18:33:42;;;;;;;1999.90;999.90;;;;;;;;;;5081466;28;20040;-82
2023/09/29 18:36:09;;;;;;;1999.90;999.90;;;;;;;;;;5079045;28;20117;-85
2023/09/29 18:38:35;;;;;;;1999.90;999.90;;;;;;;;;;5069874;28;20059;-85
2023/09/29 18:41:03;;;;;;;1999.90;999.90;;;;;;;;;;5059642;28;20571;-86
2023/09/29 18:43:39;;;;;;;1999.90;999.90;;;;;;;;;;5064927;28;20147;-85
2023/09/29 18:46:05;;;;;;;1999.90;999.90;;;;;;;;;;5070939;28;20055;-83
2023/09/29 18:48:32;;;;;;;1999.90;999.90;;;;;;;;;;5086240;28;20535;-85
2023/09/29 18:51:01;;;;;;;1999.90;999.90;;;;;;;;;;5073198;28;20047;-88
2023/09/29 18:53:28;;;;;;;1999.90;999.90;;;;;;;;;;5056891;28;20591;-88
2023/09/29 18:55:56;;;;;;;1999.90;999.90;;;;;;;;;;5067587;28;20055;-87
2023/09/29 18:58:24;;;;;;;1999.90;999.90;;;;;;;;;;5066231;28;20489;-87
2023/09/29 19:00:50;;;;;;;1999.90;999.90;;;;;;;;;;5067269;28;20156;-89
2023/09/29 19:03:17;;;;;;;1999.90;999.90;;;;;;;;;;5066486;28;20060;-86
2023/09/29 19:05:44;;;;;;;1999.90;999.90;;;;;;;;;;5073126;28;20131;-89
2023/09/29 19:08:11;;;;;;;1999.90;999.90;;;;;;;;;;5073847;28;20047;-88
2023/09/29 19:10:37;;;;;;;1999.90;999.90;;;;;;;;;;5071638;28;20047;-88
2023/09/29 19:13:04;;;;;;;1999.90;999.90;;;;;;;;;;5073481;28;20074;-85
2023/09/29 19:15:32;;;;;;;1999.90;999.90;;;;;;;;;;5089200;28;20064;-87
2023/09/29 19:18:00;;;;;;;1999.90;999.90;;;;;;;;;;5084993;28;20108;-85
2023/09/29 19:20:32;;;;;;;1999.90;999.90;;;;;;;;;;5076240;28;20496;-85
2023/09/29 19:23:02;;;;;;;1999.90;999.90;;;;;;;;;;5066663;28;20041;-84
2023/09/29 19:25:32;;;;;;;1999.90;999.90;;;;;;;;;;5078418;28;20094;-86
2023/09/29 19:27:59;;;;;;;1999.90;999.90;;;;;;;;;;5080731;28;20040;-85
2023/09/29 19:30:27;;;;;;;1999.90;999.90;;;;;;;;;;5074101;28;20053;-88
2023/09/29 19:32:56;;;;;;;1999.90;999.90;;;;;;;;;;5091642;28;20052;-88
2023/09/29 19:35:24;;;;;;;1999.90;999.90;;;;;;;;;;5095788;28;20048;-87
2023/09/29 19:37:51;;;;;;;1999.90;999.90;;;;;;;;;;5094135;28;20045;-87
2023/09/29 19:40:18;;;;;;;1999.90;999.90;;;;;;;;;;5086027;28;20080;-87
2023/09/29 19:42:46;;;;;;;1999.90;999.90;;;;;;;;;;5061850;28;20049;-89
2023/09/29 19:45:13;;;;;;;1999.90;999.90;;;;;;;;;;5074926;28;20109;-88
2023/09/29 19:47:39;;;;;;;1999.90;999.90;;;;;;;;;;5067799;28;20098;-87
2023/09/29 19:50:08;;;;;;;1999.90;999.90;;;;;;;;;;5073691;28;20049;-84
2023/09/29 19:52:35;;;;;;;1999.90;999.90;;;;;;;;;;5068339;28;20497;-89
2023/09/29 19:55:02;;;;;;;1999.90;999.90;;;;;;;;;;5063884;28;20049;-87
2023/09/29 19:57:28;;;;;;;1999.90;999.90;;;;;;;;;;5073224;28;20048;-89
2023/09/29 19:59:55;;;;;;;1999.90;999.90;;;;;;;;;;5067678;28;20048;-87
2023/09/29 20:02:22;;;;;;;1999.90;999.90;;;;;;;;;;5072280;28;20051;-87
2023/09/29 20:04:48;;;;;;;1999.90;999.90;;;;;;;;;;5065147;28;20047;-89
2023/09/29 20:07:16;;;;;;;1999.90;999.90;;;;;;;;;;5066628;28;20436;-86
2023/09/29 20:09:44;;;;;;;1999.90;999.90;;;;;;;;;;5061067;28;20395;-86
2023/09/29 20:12:11;;;;;;;1999.90;999.90;;;;;;;;;;5069840;28;20143;-87
2023/09/29 20:14:38;;;;;;;1999.90;999.90;;;;;;;;;;5073824;28;20098;-87
2023/09/29 20:17:05;;;;;;;1999.90;999.90;;;;;;;;;;5069615;28;20059;-88
2023/09/29 20:19:31;;;;;;;1999.90;999.90;;;;;;;;;;5062998;28;20137;-88
2023/09/29 20:21:58;;;;;;;1999.90;999.90;;;;;;;;;;5073091;28;20128;-88
2023/09/29 20:24:26;;;;;;;1999.90;999.90;;;;;;;;;;5073512;28;20523;-88
2023/09/29 20:26:53;;;;;;;1999.90;999.90;;;;;;;;;;5060680;28;20036;-87
2023/09/29 20:29:19;;;;;;;1999.90;999.90;;;;;;;;;;5067606;28;20397;-88
2023/09/29 20:31:46;;;;;;;1999.90;999.90;;;;;;;;;;5070727;28;20048;-87
2023/09/29 20:34:14;;;;;;;1999.90;999.90;;;;;;;;;;5069363;28;20044;-87
2023/09/29 20:36:43;;;;;;;1999.90;999.90;;;;;;;;;;5078572;28;20041;-89
2023/09/29 20:39:10;;;;;;;1999.90;999.90;;;;;;;;;;5072068;28;20055;-88
2023/09/29 20:41:38;;;;;;;1999.90;999.90;;;;;;;;;;5076072;28;20053;-87
2023/09/29 20:44:05;;;;;;;1999.90;999.90;;;;;;;;;;5072593;28;20060;-87
2023/09/29 20:46:32;;;;;;;1999.90;999.90;;;;;;;;;;5065618;28;20410;-88
2023/09/29 20:48:58;;;;;;;1999.90;999.90;;;;;;;;;;5065552;28;20256;-88
2023/09/29 20:51:25;;;;;;;1999.90;999.90;;;;;;;;;;5063966;28;20063;-89
2023/09/29 20:53:52;;;;;;;1999.90;999.90;;;;;;;;;;5064971;28;20083;-88
2023/09/29 20:56:18;;;;;;;1999.90;999.90;;;;;;;;;;5064569;28;20052;-89
2023/09/29 20:58:46;;;;;;;1999.90;999.90;;;;;;;;;;5063058;28;20496;-87
2023/09/29 21:01:14;;;;;;;1999.90;999.90;;;;;;;;;;5066999;28;20099;-87
2023/09/29 21:03:40;;;;;;;1999.90;999.90;;;;;;;;;;5066917;28;20090;-88
2023/09/29 21:06:07;;;;;;;1999.90;999.90;;;;;;;;;;5065397;28;20115;-87
2023/09/29 21:08:34;;;;;;;1999.90;999.90;;;;;;;;;;5059999;28;20049;-87
2023/09/29 21:11:00;;;;;;;1999.90;999.90;;;;;;;;;;5056258;28;20056;-88
2023/09/29 21:13:27;;;;;;;1999.90;999.90;;;;;;;;;;5060989;28;20092;-88
2023/09/29 21:15:55;;;;;;;1999.90;999.90;;;;;;;;;;5058753;28;20044;-88
2023/09/29 21:18:22;;;;;;;1999.90;999.90;;;;;;;;;;5061316;28;20049;-88
2023/09/29 21:20:52;;;;;;;1999.90;999.90;;;;;;;;;;5061606;28;20056;-88
2023/09/29 21:23:19;;;;;;;1999.90;999.90;;;;;;;;;;5057707;28;20045;-89
2023/09/29 21:25:46;;;;;;;1999.90;999.90;;;;;;;;;;5064792;28;20611;-88
2023/09/29 21:28:12;;;;;;;1999.90;999.90;;;;;;;;;;5060594;28;20044;-89
2023/09/29 21:30:39;;;;;;;1999.90;999.90;;;;;;;;;;5060083;28;20298;-89
2023/09/29 21:33:07;;;;;;;1999.90;999.90;;;;;;;;;;5060793;28;20106;-89
2023/09/29 21:35:35;;;;;;;1999.90;999.90;;;;;;;;;;5061235;28;20049;-88
2023/09/29 21:38:01;;;;;;;1999.90;999.90;;;;;;;;;;5057206;28;20048;-88
2023/09/29 21:40:28;;;;;;;1999.90;999.90;;;;;;;;;;5071863;28;20049;-85
2023/09/29 21:46:17;;;;;;;1999.90;999.90;;;;;;;;;;5078862;28;20059;-85
2023/09/29 21:48:45;;;;;;;1999.90;999.90;;;;;;;;;;5087723;28;20045;-86
2023/09/29 21:51:11;;;;;;;1999.90;999.90;;;;;;;;;;5087057;28;20054;-85
2023/09/29 21:53:38;;;;;;;1999.90;999.90;;;;;;;;;;5087818;28;20056;-82
2023/09/29 21:56:05;;;;;;;1999.90;999.90;;;;;;;;;;5085360;28;20056;-84
2023/09/29 21:58:32;;;;;;;1999.90;999.90;;;;;;;;;;5086051;28;20100;-84
2023/09/29 22:00:58;;;;;;;1999.90;999.90;;;;;;;;;;5087166;28;20048;-84
2023/09/29 22:03:25;;;;;;;1999.90;999.90;;;;;;;;;;5090826;28;20104;-86
2023/09/29 22:05:53;;;;;;;1999.90;999.90;;;;;;;;;;5083075;28;20059;-88
2023/09/29 22:08:20;;;;;;;1999.90;999.90;;;;;;;;;;5070178;28;20061;-88
2023/09/29 22:10:47;;;;;;;1999.90;999.90;;;;;;;;;;5062332;28;20098;-87
2023/09/29 22:13:16;;;;;;;1999.90;999.90;;;;;;;;;;5077308;28;20076;-89
2023/09/29 22:15:43;;;;;;;1999.90;999.90;;;;;;;;;;5081494;28;20062;-89
2023/09/29 22:18:10;;;;;;;1999.90;999.90;;;;;;;;;;5096832;28;20064;-89
2023/09/29 22:20:38;;;;;;;1999.90;999.90;;;;;;;;;;5098164;28;20084;-87
2023/09/29 22:23:07;;;;;;;1999.90;999.90;;;;;;;;;;5097988;28;20048;-89
2023/09/29 22:25:34;;;;;;;1999.90;999.90;;;;;;;;;;5096928;28;20037;-89
2023/09/29 22:28:02;;;;;;;1999.90;999.90;;;;;;;;;;5066402;28;20052;-88
2023/09/29 22:30:29;;;;;;;1999.90;999.90;;;;;;;;;;5060805;28;20052;-87
2023/09/29 22:32:55;;;;;;;1999.90;999.90;;;;;;;;;;5062596;28;20083;-88
2023/09/29 22:35:22;;;;;;;1999.90;999.90;;;;;;;;;;5058244;28;20155;-88
2023/09/29 22:37:48;;;;;;;1999.90;999.90;;;;;;;;;;5059618;28;20072;-88
2023/09/29 22:40:16;;;;;;;1999.90;999.90;;;;;;;;;;5064281;28;20069;-89
2023/09/29 22:42:43;;;;;;;1999.90;999.90;;;;;;;;;;5059305;28;20044;-91
2023/09/29 22:45:10;;;;;;;1999.90;999.90;;;;;;;;;;5085596;28;20103;-88
2023/09/29 22:47:37;;;;;;;1999.90;999.90;;;;;;;;;;5096780;28;20084;-88
2023/09/29 22:50:05;;;;;;;1999.90;999.90;;;;;;;;;;5096818;28;20029;-89
2023/09/29 22:52:32;;;;;;;1999.90;999.90;;;;;;;;;;5097124;28;20047;-90
2023/09/29 22:54:59;;;;;;;1999.90;999.90;;;;;;;;;;5095161;28;20049;-89
2023/09/29 22:57:29;;;;;;;1999.90;999.90;;;;;;;;;;5096014;28;20072;-88
2023/09/29 22:59:56;;;;;;;1999.90;999.90;;;;;;;;;;5097265;28;20481;-89
2023/09/29 23:02:23;;;;;;;1999.90;999.90;;;;;;;;;;5096398;28;20044;-87
2023/09/29 23:04:51;;;;;;;1999.90;999.90;;;;;;;;;;5096900;28;20556;-88
2023/09/29 23:07:17;;;;;;;1999.90;999.90;;;;;;;;;;5096693;28;20493;-87
2023/09/29 23:09:45;;;;;;;1999.90;999.90;;;;;;;;;;5094806;28;20099;-88
2023/09/29 23:12:13;;;;;;;1999.90;999.90;;;;;;;;;;5094875;28;20063;-88
2023/09/29 23:14:42;;;;;;;1999.90;999.90;;;;;;;;;;5062721;28;20055;-84
2023/09/29 23:17:09;;;;;;;1999.90;999.90;;;;;;;;;;5084483;28;20083;-87
2023/09/29 23:19:36;;;;;;;1999.90;999.90;;;;;;;;;;5061407;28;20194;-88
2023/09/29 23:22:03;;;;;;;1999.90;999.90;;;;;;;;;;5060429;28;20424;-87
2023/09/29 23:24:29;;;;;;;1999.90;999.90;;;;;;;;;;5060980;28;20049;-88
2023/09/29 23:26:58;;;;;;;1999.90;999.90;;;;;;;;;;5058077;28;20049;-87
2023/09/29 23:29:24;;;;;;;1999.90;999.90;;;;;;;;;;5060022;28;20764;-86
2023/09/29 23:31:52;;;;;;;1999.90;999.90;;;;;;;;;;5062230;28;20044;-87
2023/09/29 23:34:19;;;;;;;1999.90;999.90;;;;;;;;;;5062211;28;20046;-88
2023/09/29 23:36:46;;;;;;;1999.90;999.90;;;;;;;;;;5063665;28;20059;-89
2023/09/29 23:39:13;;;;;;;1999.90;999.90;;;;;;;;;;5059111;28;20068;-86
2023/09/29 23:41:40;;;;;;;1999.90;999.90;;;;;;;;;;5062795;28;20045;-87
2023/09/29 23:44:07;;;;;;;1999.90;999.90;;;;;;;;;;5061859;28;20040;-86
2023/09/29 23:46:34;;;;;;;1999.90;999.90;;;;;;;;;;5062833;28;20044;-90
2023/09/29 23:49:06;;;;;;;1999.90;999.90;;;;;;;;;;5063687;28;20497;-86
2023/09/29 23:51:33;;;;;;;1999.90;999.90;;;;;;;;;;5057949;28;20036;-86
2023/09/29 23:54:00;;;;;;;1999.90;999.90;;;;;;;;;;5058964;28;20064;-88
2023/09/29 23:56:28;;;;;;;1999.90;999.90;;;;;;;;;;5059990;28;20489;-88
2023/09/29 23:58:55;;;;;;;1999.90;999.90;;;;;;;;;;5059933;28;20049;-88
